createdAt,value
2023-03-24T00:01:19.023Z,95491.56
2023-03-24T00:03:48.714Z,95480.97
2023-03-24T00:06:18.746Z,95483.19
2023-03-24T00:08:48.602Z,95477.47
2023-03-24T00:11:18.618Z,95484.88
2023-03-24T00:13:50.095Z,95483.66
2023-03-24T00:16:19.397Z,95479.81
2023-03-24T00:18:50.341Z,95472.91
2023-03-24T00:21:18.376Z,95471.03
2023-03-24T00:23:47.754Z,95474.28
2023-03-24T00:26:18.015Z,95471.56
2023-03-24T00:28:48.407Z,95470.44
2023-03-24T00:31:17.882Z,95475.84
2023-03-24T00:33:50.724Z,95476.22
2023-03-24T00:36:21.053Z,95471.56
2023-03-24T00:38:50.239Z,95463.09
2023-03-24T00:41:21.340Z,95463.78
2023-03-24T00:43:50.885Z,95456.22
2023-03-24T00:46:28.656Z,95457.25
2023-03-24T00:49:05.970Z,95447.53
2023-03-24T00:51:37.426Z,95445.28
2023-03-24T00:54:06.547Z,95438.63
2023-03-24T00:56:37.895Z,95441.22
2023-03-24T00:59:06.009Z,95435.31
2023-03-24T01:01:36.608Z,95448.19
2023-03-24T01:04:07.455Z,95443.31
2023-03-24T01:06:38.227Z,95459.75
2023-03-24T01:09:07.423Z,95483.91
2023-03-24T01:11:40.181Z,95504.44
2023-03-24T01:14:10.350Z,95500.75
2023-03-24T01:16:38.503Z,95476.38
2023-03-24T01:19:09.120Z,95475.28
2023-03-24T01:21:37.940Z,95481.31
2023-03-24T01:24:06.972Z,95478.44
2023-03-24T01:26:35.315Z,95473.59
2023-03-24T01:29:04.709Z,95472.94
2023-03-24T01:31:32.681Z,95463.09
2023-03-24T01:34:00.666Z,95465.94
2023-03-24T01:36:28.590Z,95471.91
2023-03-24T01:38:58.442Z,95472.91
2023-03-24T01:41:27.970Z,95466.41
2023-03-24T01:43:55.982Z,95463.09
2023-03-24T01:46:26.646Z,95463.09
2023-03-24T01:48:58.936Z,95455.69
2023-03-24T01:51:30.823Z,95456.22
2023-03-24T01:54:02.267Z,95454.00
2023-03-24T01:56:34.380Z,95447.00
2023-03-24T01:59:07.973Z,95456.69
2023-03-24T02:01:48.064Z,95441.78
2023-03-24T02:04:31.536Z,95447.78
2023-03-24T02:07:11.053Z,95438.31
2023-03-24T02:09:39.133Z,95441.69
2023-03-24T02:12:07.736Z,95437.41
2023-03-24T02:14:35.851Z,95421.84
2023-03-24T02:17:23.952Z,95415.41
2023-03-24T02:20:29.881Z,95412.81
2023-03-24T02:23:27.429Z,95405.06
2023-03-24T02:26:42.267Z,95395.91
2023-03-24T02:29:39.069Z,95399.06
2023-03-24T02:32:48.453Z,95383.28
2023-03-24T02:35:55.890Z,95372.81
2023-03-24T02:38:57.158Z,95367.41
2023-03-24T02:41:32.356Z,95368.19
2023-03-24T02:44:07.981Z,95367.75
2023-03-24T02:46:43.516Z,95367.28
2023-03-24T02:49:22.852Z,95362.53
2023-03-24T02:51:54.723Z,95352.84
2023-03-24T02:54:28.789Z,95343.16
2023-03-24T02:57:05.562Z,95343.16
2023-03-24T03:00:14.077Z,95346.22
2023-03-24T03:03:07.548Z,95344.06
2023-03-24T03:05:40.654Z,95342.06
2023-03-24T03:08:12.002Z,95342.06
2023-03-24T03:10:43.663Z,95340.44
2023-03-24T03:13:19.346Z,95336.84
2023-03-24T03:15:51.025Z,95340.25
2023-03-24T03:18:24.092Z,95337.97
2023-03-24T03:20:56.878Z,95326.38
2023-03-24T03:23:30.252Z,95316.34
2023-03-24T03:26:06.257Z,95314.75
2023-03-24T03:28:39.427Z,95313.63
2023-03-24T03:31:14.873Z,95310.03
2023-03-24T03:33:49.834Z,95306.88
2023-03-24T03:36:25.131Z,95317.59
2023-03-24T03:38:57.770Z,95320.84
2023-03-24T03:41:26.014Z,95311.38
2023-03-24T03:43:55.861Z,95323.13
2023-03-24T03:46:24.127Z,95316.22
2023-03-24T03:48:52.256Z,95315.44
2023-03-24T03:51:20.689Z,95313.88
2023-03-24T03:53:58.216Z,95313.88
2023-03-24T03:56:29.368Z,95312.72
2023-03-24T03:59:30.054Z,95318.59
2023-03-24T04:01:59.903Z,95313.19
2023-03-24T04:04:59.810Z,95317.13
2023-03-24T04:08:09.625Z,95311.38
2023-03-24T04:11:32.366Z,95322.66
2023-03-24T04:14:44.319Z,95316.53
2023-03-24T04:18:03.849Z,95323.56
2023-03-24T04:21:06.267Z,95316.75
2023-03-24T04:23:45.911Z,95329.03
2023-03-24T04:26:26.173Z,95329.03
2023-03-24T04:29:06.074Z,95339.97
2023-03-24T04:31:38.837Z,95349.72
2023-03-24T04:34:15.633Z,95347.44
2023-03-24T04:36:50.368Z,95350.94
2023-03-24T04:39:28.271Z,95352.84
2023-03-24T04:42:00.054Z,95366.03
2023-03-24T04:44:32.955Z,95351.94
2023-03-24T04:47:33.444Z,95358.50
2023-03-24T04:50:14.645Z,95360.72
2023-03-24T04:52:43.919Z,95355.66
2023-03-24T04:55:43.366Z,95352.53
2023-03-24T04:58:11.345Z,95344.50
2023-03-24T05:00:39.241Z,95346.75
2023-03-24T05:03:07.158Z,95348.81
2023-03-24T05:05:36.646Z,95350.50
2023-03-24T05:08:04.982Z,95347.44
2023-03-24T05:10:32.739Z,95340.34
2023-03-24T05:13:00.643Z,95343.03
2023-03-24T05:15:28.876Z,95348.81
2023-03-24T05:18:08.382Z,95344.53
2023-03-24T05:20:37.605Z,95324.88
2023-03-24T05:23:14.336Z,95316.78
2023-03-24T05:25:44.714Z,95304.16
2023-03-24T05:28:12.581Z,95302.81
2023-03-24T05:30:40.563Z,95288.84
2023-03-24T05:33:28.352Z,95288.38
2023-03-24T05:35:58.320Z,95282.63
2023-03-24T05:38:26.320Z,95295.13
2023-03-24T05:40:57.746Z,95293.78
2023-03-24T05:43:28.385Z,95288.13
2023-03-24T05:46:09.071Z,95288.13
2023-03-24T05:48:37.185Z,95293.97
2023-03-24T05:51:13.534Z,95297.59
2023-03-24T05:53:42.049Z,95297.94
2023-03-24T05:56:18.762Z,95298.47
2023-03-24T05:59:13.668Z,95295.34
2023-03-24T06:01:56.716Z,95306.81
2023-03-24T06:04:31.465Z,95302.75
2023-03-24T06:07:08.942Z,95298.66
2023-03-24T06:09:42.437Z,95306.66
2023-03-24T06:12:12.680Z,95303.88
2023-03-24T06:14:48.421Z,95306.38
2023-03-24T06:17:16.469Z,95308.50
2023-03-24T06:19:49.477Z,95314.47
2023-03-24T06:22:36.514Z,95318.00
2023-03-24T06:25:09.761Z,95327.00
2023-03-24T06:27:38.248Z,95328.34
2023-03-24T06:30:08.542Z,95332.47
2023-03-24T06:32:36.673Z,95337.75
2023-03-24T06:35:05.062Z,95339.06
2023-03-24T06:37:44.774Z,95350.44
2023-03-24T06:40:17.509Z,95358.00
2023-03-24T06:42:53.629Z,95364.94
2023-03-24T06:45:21.675Z,95375.94
2023-03-24T06:47:50.391Z,95370.72
2023-03-24T06:50:18.425Z,95376.59
2023-03-24T06:52:47.741Z,95378.59
2023-03-24T06:55:19.416Z,95387.44
2023-03-24T06:57:47.330Z,95381.47
2023-03-24T07:00:30.192Z,95401.19
2023-03-24T07:03:09.075Z,95404.41
2023-03-24T07:05:39.429Z,95400.09
2023-03-24T07:08:30.105Z,95418.75
2023-03-24T07:11:00.002Z,95420.22
2023-03-24T07:13:27.908Z,95429.34
2023-03-24T07:16:03.978Z,95437.75
2023-03-24T07:18:31.937Z,95428.34
2023-03-24T07:21:04.927Z,95424.97
2023-03-24T07:23:35.747Z,95433.16
2023-03-24T07:26:17.889Z,95433.25
2023-03-24T07:28:49.069Z,95422.84
2023-03-24T07:31:40.900Z,95435.53
2023-03-24T07:34:12.231Z,95426.78
2023-03-24T07:36:41.176Z,95437.50
2023-03-24T07:39:15.148Z,95432.34
2023-03-24T07:41:43.082Z,95430.16
2023-03-24T07:44:24.272Z,95423.97
2023-03-24T07:46:53.859Z,95427.13
2023-03-24T07:49:22.455Z,95430.97
2023-03-24T07:51:59.937Z,95444.66
2023-03-24T07:54:45.235Z,95444.88
2023-03-24T07:57:27.682Z,95435.53
2023-03-24T07:59:55.730Z,95437.09
2023-03-24T08:02:44.025Z,95435.94
2023-03-24T08:05:45.121Z,95424.94
2023-03-24T08:08:33.145Z,95422.31
2023-03-24T08:11:02.346Z,95431.06
2023-03-24T08:13:30.165Z,95433.38
2023-03-24T08:15:58.271Z,95437.28
2023-03-24T08:18:26.497Z,95441.16
2023-03-24T08:20:58.129Z,95440.88
2023-03-24T08:23:26.521Z,95450.09
2023-03-24T08:25:54.426Z,95455.81
2023-03-24T08:28:23.880Z,95460.88
2023-03-24T08:30:51.898Z,95468.22
2023-03-24T08:33:20.347Z,95466.81
2023-03-24T08:35:48.312Z,95457.72
2023-03-24T08:38:18.810Z,95463.06
2023-03-24T08:40:48.933Z,95461.81
2023-03-24T08:43:17.385Z,95474.84
2023-03-24T08:45:47.749Z,95475.38
2023-03-24T08:48:16.039Z,95478.03
2023-03-24T08:50:44.572Z,95485.53
2023-03-24T08:53:12.773Z,95486.06
2023-03-24T08:55:43.064Z,95491.75
2023-03-24T08:58:15.594Z,95492.81
2023-03-24T09:00:44.851Z,95489.50
2023-03-24T09:03:18.537Z,95497.91
2023-03-24T09:05:47.659Z,95491.84
2023-03-24T09:08:17.440Z,95490.09
2023-03-24T09:10:47.185Z,95494.94
2023-03-24T09:13:15.438Z,95503.94
2023-03-24T09:15:47.690Z,95502.34
2023-03-24T09:18:17.565Z,95505.94
2023-03-24T09:20:46.294Z,95502.25
2023-03-24T09:23:14.209Z,95504.84
2023-03-24T09:25:42.093Z,95507.84
2023-03-24T09:28:10.052Z,95517.88
2023-03-24T09:30:38.288Z,95525.75
2023-03-24T09:33:06.247Z,95529.81
2023-03-24T09:35:35.696Z,95523.16
2023-03-24T09:38:03.522Z,95526.38
2023-03-24T09:40:33.726Z,95532.88
2023-03-24T09:43:04.533Z,95527.28
2023-03-24T09:45:37.595Z,95533.50
2023-03-24T09:48:12.055Z,95533.13
2023-03-24T09:50:49.375Z,95540.78
2023-03-24T09:53:28.045Z,95531.56
2023-03-24T09:55:56.413Z,95519.91
2023-03-24T09:58:33.680Z,95528.00
2023-03-24T10:01:01.628Z,95533.03
2023-03-24T10:03:29.810Z,95528.84
2023-03-24T10:06:06.163Z,95530.91
2023-03-24T10:08:37.522Z,95524.69
2023-03-24T10:11:08.513Z,95519.59
2023-03-24T10:13:49.163Z,95510.13
2023-03-24T10:16:24.995Z,95511.94
2023-03-24T10:18:59.322Z,95515.34
2023-03-24T10:21:31.608Z,95511.47
2023-03-24T10:24:07.638Z,95494.56
2023-03-24T10:26:46.790Z,95488.75
2023-03-24T10:29:25.928Z,95488.34
2023-03-24T10:31:58.656Z,95480.44
2023-03-24T10:34:30.736Z,95479.31
2023-03-24T10:37:02.822Z,95470.41
2023-03-24T10:39:42.057Z,95477.75
2023-03-24T10:42:18.669Z,95479.31
2023-03-24T10:44:48.075Z,95499.59
2023-03-24T10:47:18.487Z,95516.78
2023-03-24T10:49:58.468Z,95529.88
2023-03-24T10:52:28.207Z,95529.28
2023-03-24T10:54:58.466Z,95530.34
2023-03-24T10:57:28.778Z,95514.81
2023-03-24T11:00:00.327Z,95512.25
2023-03-24T11:02:31.552Z,95508.88
2023-03-24T11:05:02.502Z,95502.63
2023-03-24T11:07:36.346Z,95495.31
2023-03-24T11:10:15.600Z,95499.09
2023-03-24T11:12:44.768Z,95502.69
2023-03-24T11:15:21.800Z,95494.19
2023-03-24T11:17:56.048Z,95498.06
2023-03-24T11:20:29.912Z,95500.44
2023-03-24T11:23:02.055Z,95495.28
2023-03-24T11:25:33.803Z,95488.19
2023-03-24T11:28:03.834Z,95488.41
2023-03-24T11:30:36.147Z,95479.16
2023-03-24T11:33:05.287Z,95486.22
2023-03-24T11:35:41.708Z,95477.00
2023-03-24T11:38:18.277Z,95479.09
2023-03-24T11:40:59.540Z,95483.66
2023-03-24T11:43:28.842Z,95492.47
2023-03-24T11:46:03.267Z,95497.63
2023-03-24T11:48:39.948Z,95504.97
2023-03-24T11:51:12.510Z,95503.16
2023-03-24T11:53:46.024Z,95505.16
2023-03-24T11:56:23.001Z,95498.47
2023-03-24T11:58:57.852Z,95498.00
2023-03-24T12:01:29.036Z,95486.59
2023-03-24T12:04:08.629Z,95485.03
2023-03-24T12:06:51.057Z,95476.25
2023-03-24T12:09:32.105Z,95443.84
2023-03-24T12:12:18.657Z,95425.72
2023-03-24T12:15:03.020Z,95481.78
2023-03-24T12:17:40.326Z,95482.88
2023-03-24T12:20:20.095Z,95473.66
2023-03-24T12:22:57.085Z,95478.75
2023-03-24T12:25:43.227Z,95484.00
2023-03-24T12:28:26.497Z,95470.41
2023-03-24T12:31:08.803Z,95475.81
2023-03-24T12:33:47.182Z,95472.84
2023-03-24T12:36:34.731Z,95472.44
2023-03-24T12:39:14.497Z,95466.25
2023-03-24T12:42:07.506Z,95464.84
2023-03-24T12:45:04.216Z,95458.59
2023-03-24T12:47:54.460Z,95434.09
2023-03-24T12:50:34.074Z,95378.28
2023-03-24T12:53:18.079Z,95400.22
2023-03-24T12:55:50.432Z,95439.84
2023-03-24T12:58:24.828Z,95453.06
2023-03-24T13:01:04.897Z,95447.41
2023-03-24T13:03:41.285Z,95447.53
2023-03-24T13:06:17.773Z,95452.50
2023-03-24T13:08:53.386Z,95448.50
2023-03-24T13:11:32.997Z,95433.03
2023-03-24T13:14:07.737Z,95434.06
2023-03-24T13:16:38.897Z,95453.16
2023-03-24T13:19:15.644Z,95455.69
2023-03-24T13:21:45.097Z,95449.72
2023-03-24T13:24:15.455Z,95447.34
2023-03-24T13:26:54.245Z,95453.84
2023-03-24T13:29:49.375Z,95451.97
2023-03-24T13:32:27.363Z,95452.75
2023-03-24T13:35:00.318Z,95464.31
2023-03-24T13:37:34.553Z,95454.06
2023-03-24T13:40:07.707Z,95456.50
2023-03-24T13:42:38.663Z,95452.00
2023-03-24T13:45:09.303Z,95457.81
2023-03-24T13:47:51.366Z,95456.13
2023-03-24T13:50:20.698Z,95461.56
2023-03-24T13:52:50.703Z,95454.31
2023-03-24T13:55:24.362Z,95438.03
2023-03-24T13:57:57.679Z,95425.88
2023-03-24T14:00:28.254Z,95432.53
2023-03-24T14:02:58.191Z,95414.28
2023-03-24T14:05:35.314Z,95399.41
2023-03-24T14:08:43.744Z,95409.84
2023-03-24T14:11:59.293Z,95397.25
2023-03-24T14:14:29.208Z,95380.84
2023-03-24T14:17:14.214Z,95401.22
2023-03-24T14:19:43.166Z,95400.84
2023-03-24T14:22:16.477Z,95397.06
2023-03-24T14:24:47.944Z,95405.97
2023-03-24T14:27:34.634Z,95405.09
2023-03-24T14:30:07.396Z,95418.44
2023-03-24T14:32:41.854Z,95417.81
2023-03-24T14:35:24.763Z,95427.75
2023-03-24T14:37:56.365Z,95443.13
2023-03-24T14:40:32.085Z,95435.66
2023-03-24T14:43:23.704Z,95448.31
2023-03-24T14:45:57.711Z,95458.06
2023-03-24T14:48:34.913Z,95461.97
2023-03-24T14:51:10.249Z,95461.25
2023-03-24T14:53:40.306Z,95446.84
2023-03-24T14:56:14.256Z,95445.16
2023-03-24T14:58:44.079Z,95443.84
2023-03-24T15:01:12.363Z,95451.41
2023-03-24T15:03:49.652Z,95452.28
2023-03-24T15:06:19.457Z,95457.63
2023-03-24T15:08:52.169Z,95450.22
2023-03-24T15:11:24.453Z,95442.06
2023-03-24T15:13:53.371Z,95449.69
2023-03-24T15:16:24.986Z,95446.38
2023-03-24T15:21:30.596Z,95447.84
2023-03-24T15:23:58.766Z,95437.78
2023-03-24T15:26:28.355Z,95435.75
2023-03-24T15:28:57.954Z,95437.13
2023-03-24T15:31:30.296Z,95443.09
2023-03-24T15:34:08.236Z,95450.06
2023-03-24T15:36:40.821Z,95452.31
2023-03-24T15:39:19.841Z,95457.38
2023-03-24T15:41:51.837Z,95449.41
2023-03-24T15:44:21.844Z,95453.06
2023-03-24T15:46:50.308Z,95454.66
2023-03-24T15:49:24.919Z,95453.13
2023-03-24T15:51:57.076Z,95447.84
2023-03-24T15:54:27.551Z,95450.81
2023-03-24T15:57:14.896Z,95449.91
2023-03-24T15:59:48.638Z,95432.31
2023-03-24T16:02:33.374Z,95435.34
2023-03-24T16:05:30.471Z,95433.13
2023-03-24T16:08:00.775Z,95419.22
2023-03-24T16:10:33.623Z,95417.09
2023-03-24T16:13:14.909Z,95421.13
2023-03-24T16:15:45.031Z,95380.81
2023-03-24T16:18:22.388Z,95380.50
2023-03-24T16:20:52.480Z,95393.53
2023-03-24T16:23:20.481Z,95374.81
2023-03-24T16:25:48.298Z,95397.97
2023-03-24T16:28:20.302Z,95406.88
2023-03-24T16:30:53.188Z,95410.69
2023-03-24T16:33:24.078Z,95409.34
2023-03-24T16:35:54.575Z,95418.16
2023-03-24T16:38:45.354Z,95427.06
2023-03-24T16:41:18.954Z,95430.06
2023-03-24T16:43:46.950Z,95412.34
2023-03-24T16:46:16.721Z,95424.13
2023-03-24T16:48:45.051Z,95417.97
2023-03-24T16:51:16.238Z,95439.16
2023-03-24T16:53:45.466Z,95434.41
2023-03-24T16:56:15.340Z,95421.47
2023-03-24T16:58:43.127Z,95451.38
2023-03-24T17:01:26.547Z,95448.09
2023-03-24T17:03:55.523Z,95442.78
2023-03-24T17:06:27.239Z,95441.31
2023-03-24T17:08:55.164Z,95457.94
2023-03-24T17:11:27.478Z,95437.50
2023-03-24T17:13:57.239Z,95438.97
2023-03-24T17:16:25.607Z,95437.94
2023-03-24T17:18:53.588Z,95442.22
2023-03-24T17:21:21.701Z,95446.66
2023-03-24T17:23:54.819Z,95449.34
2023-03-24T17:26:23.460Z,95447.44
2023-03-24T17:28:52.435Z,95431.84
2023-03-24T17:31:20.371Z,95426.22
2023-03-24T17:33:48.204Z,95444.03
2023-03-24T17:36:17.237Z,95442.69
2023-03-24T17:38:47.269Z,95447.31
2023-03-24T17:41:18.025Z,95440.78
2023-03-24T17:43:46.853Z,95433.47
2023-03-24T17:46:14.745Z,95434.25
2023-03-24T17:48:45.293Z,95430.53
2023-03-24T17:51:14.247Z,95429.06
2023-03-24T17:53:45.077Z,95427.94
2023-03-24T17:56:13.171Z,95431.88
2023-03-24T17:58:46.967Z,95441.16
2023-03-24T18:01:18.211Z,95444.41
2023-03-24T18:03:50.824Z,95434.69
2023-03-24T18:06:18.651Z,95437.19
2023-03-24T18:08:46.387Z,95436.94
2023-03-24T18:11:15.775Z,95433.25
2023-03-24T18:13:45.218Z,95440.88
2023-03-24T18:16:21.262Z,95439.75
2023-03-24T18:18:51.175Z,95443.13
2023-03-24T18:21:21.043Z,95451.44
2023-03-24T18:23:49.276Z,95456.72
2023-03-24T18:26:18.262Z,95455.03
2023-03-24T18:28:47.851Z,95456.72
2023-03-24T18:31:18.621Z,95445.00
2023-03-24T18:33:46.920Z,95455.41
2023-03-24T18:36:16.949Z,95477.13
2023-03-24T18:38:46.648Z,95499.75
2023-03-24T18:41:16.767Z,95495.13
2023-03-24T18:43:47.568Z,95502.31
2023-03-24T18:46:17.548Z,95502.19
2023-03-24T18:48:46.611Z,95509.53
2023-03-24T18:51:15.420Z,95517.06
2023-03-24T18:53:43.252Z,95517.97
2023-03-24T18:56:12.467Z,95514.16
2023-03-24T18:58:40.766Z,95521.66
2023-03-24T19:01:11.333Z,95510.53
2023-03-24T19:03:42.010Z,95504.97
2023-03-24T19:06:12.480Z,95510.59
2023-03-24T19:08:42.341Z,95522.84
2023-03-24T19:11:10.923Z,95529.88
2023-03-24T19:13:39.889Z,95539.31
2023-03-24T19:16:09.355Z,95547.09
2023-03-24T19:18:37.932Z,95552.16
2023-03-24T19:21:07.886Z,95552.91
2023-03-24T19:23:36.656Z,95556.91
2023-03-24T19:26:04.658Z,95542.75
2023-03-24T19:28:35.549Z,95558.69
2023-03-24T19:31:08.922Z,95567.06
2023-03-24T19:33:37.387Z,95562.78
2023-03-24T19:36:08.889Z,95564.22
2023-03-24T19:38:37.696Z,95564.75
2023-03-24T19:41:07.132Z,95563.31
2023-03-24T19:43:37.219Z,95563.31
2023-03-24T19:46:06.414Z,95561.31
2023-03-24T19:48:34.762Z,95564.00
2023-03-24T19:51:03.374Z,95559.19
2023-03-24T19:53:32.599Z,95551.94
2023-03-24T19:56:01.087Z,95553.41
2023-03-24T19:58:29.018Z,95532.25
2023-03-24T20:00:57.221Z,95542.75
2023-03-24T20:03:25.669Z,95545.44
2023-03-24T20:05:53.542Z,95569.41
2023-03-24T20:08:21.618Z,95567.97
2023-03-24T20:10:50.763Z,95560.66
2023-03-24T20:13:19.233Z,95575.94
2023-03-24T20:15:47.415Z,95565.91
2023-03-24T20:18:15.482Z,95569.75
2023-03-24T20:20:43.342Z,95576.72
2023-03-24T20:23:11.303Z,95576.13
2023-03-24T20:25:42.210Z,95568.31
2023-03-24T20:28:11.550Z,95568.81
2023-03-24T20:30:40.135Z,95566.16
2023-03-24T20:33:08.078Z,95567.59
2023-03-24T20:35:36.623Z,95569.19
2023-03-24T20:38:04.543Z,95567.78
2023-03-24T20:40:32.288Z,95573.97
2023-03-24T20:43:00.115Z,95569.97
2023-03-24T20:45:29.348Z,95572.38
2023-03-24T20:47:57.257Z,95560.38
2023-03-24T20:50:25.043Z,95578.78
2023-03-24T20:52:52.848Z,95574.84
2023-03-24T20:55:20.832Z,95581.06
2023-03-24T20:57:48.600Z,95569.00
2023-03-24T21:00:20.220Z,95583.97
2023-03-24T21:02:49.439Z,95577.94
2023-03-24T21:05:17.305Z,95579.69
2023-03-24T21:07:45.824Z,95579.22
2023-03-24T21:10:14.354Z,95580.06
2023-03-24T21:12:54.306Z,95585.44
2023-03-24T21:15:24.712Z,95593.84
2023-03-24T21:17:54.892Z,95592.88
2023-03-24T21:20:26.682Z,95593.84
2023-03-24T21:22:55.669Z,95587.03
2023-03-24T21:25:28.855Z,95587.84
2023-03-24T21:27:57.852Z,95586.09
2023-03-24T21:30:27.028Z,95592.91
2023-03-24T21:32:57.674Z,95588.94
2023-03-24T21:35:25.970Z,95602.63
2023-03-24T21:37:54.421Z,95597.84
2023-03-24T21:40:24.989Z,95598.81
2023-03-24T21:42:54.065Z,95604.69
2023-03-24T21:45:24.059Z,95597.56
2023-03-24T21:47:55.244Z,95604.53
2023-03-24T21:50:25.749Z,95603.75
2023-03-24T21:52:55.339Z,95603.25
2023-03-24T21:55:25.265Z,95594.38
2023-03-24T21:57:53.154Z,95597.41
2023-03-24T22:00:23.129Z,95598.19
2023-03-24T22:02:52.869Z,95598.38
2023-03-24T22:05:22.658Z,95598.53
2023-03-24T22:07:52.671Z,95603.44
2023-03-24T22:10:24.611Z,95594.88
2023-03-24T22:12:53.994Z,95596.34
2023-03-24T22:15:22.350Z,95591.72
2023-03-24T22:17:50.675Z,95585.56
2023-03-24T22:20:19.070Z,95586.00
2023-03-24T22:22:47.278Z,95584.28
2023-03-24T22:25:18.793Z,95594.59
2023-03-24T22:27:49.918Z,95590.00
2023-03-24T22:30:19.312Z,95591.06
2023-03-24T22:32:47.115Z,95596.34
2023-03-24T22:35:15.547Z,95593.63
2023-03-24T22:37:43.424Z,95598.22
2023-03-24T22:40:11.180Z,95593.94
2023-03-24T22:42:40.336Z,95600.78
2023-03-24T22:45:09.509Z,95602.50
2023-03-24T22:47:38.402Z,95610.75
2023-03-24T22:50:10.291Z,95606.63
2023-03-24T22:52:38.035Z,95619.94
2023-03-24T22:55:06.538Z,95622.00
2023-03-24T22:57:34.363Z,95617.41
2023-03-24T23:00:04.032Z,95616.63
2023-03-24T23:02:32.155Z,95617.09
2023-03-24T23:04:59.980Z,95617.56
2023-03-24T23:07:28.791Z,95629.78
2023-03-24T23:09:59.469Z,95626.91
2023-03-24T23:12:27.708Z,95636.28
2023-03-24T23:14:56.009Z,95634.50
2023-03-24T23:17:25.475Z,95638.31
2023-03-24T23:19:53.840Z,95640.72
2023-03-24T23:22:22.388Z,95643.06
2023-03-24T23:24:53.694Z,95640.22
2023-03-24T23:27:33.584Z,95644.50
2023-03-24T23:30:01.493Z,95646.72
2023-03-24T23:32:33.210Z,95646.25
2023-03-24T23:35:02.800Z,95639.13
2023-03-24T23:37:32.157Z,95647.53
2023-03-24T23:40:02.456Z,95659.91
2023-03-24T23:42:33.164Z,95651.50
2023-03-24T23:45:01.105Z,95643.09
2023-03-24T23:47:32.538Z,95644.19
2023-03-24T23:50:00.959Z,95646.09
2023-03-24T23:52:28.991Z,95649.59
2023-03-24T23:54:56.878Z,95644.38
2023-03-24T23:57:24.867Z,95652.47
2023-03-24T23:59:53.833Z,95650.06
